Time;durP1;ratioP1;P1;durP2;ratioP2;P2;SDS_P1;SDS_P2;PMS_P1;PMS_P2;Temp;Humidity;BMP_temperature;BMP_pressure;BME280_temperature;BME280_humidity;BME280_pressure;Samples;Min_cycle;Max_cycle;Signal;HPM_P1;HPM_P2
2023/11/14 00:01:23;;;;;;;31.02;5.95;;;;;;;13.63;71.41;98103.97;5010743;28;20133;-75
2023/11/14 00:03:50;;;;;;;28.73;4.53;;;;;;;13.64;71.58;98101.19;5005749;28;20607;-76
2023/11/14 00:06:17;;;;;;;22.55;4.75;;;;;;;13.64;71.13;98103.84;5030584;28;20548;-74
2023/11/14 00:08:43;;;;;;;26.25;4.90;;;;;;;13.64;71.11;98105.66;5030669;28;20045;-78
2023/11/14 00:11:10;;;;;;;27.52;6.28;;;;;;;13.64;70.99;98098.53;5030302;28;20502;-75
2023/11/14 00:13:37;;;;;;;27.25;5.50;;;;;;;13.64;70.86;98095.09;5021821;28;20038;-76
2023/11/14 00:16:04;;;;;;;30.92;5.30;;;;;;;13.66;71.07;98099.25;5011103;28;20140;-74
2023/11/14 00:18:31;;;;;;;30.20;5.45;;;;;;;13.65;71.13;98097.56;5010689;28;20056;-74
2023/11/14 00:20:58;;;;;;;30.30;5.75;;;;;;;13.66;71.02;98101.03;5010974;28;20050;-75
2023/11/14 00:23:25;;;;;;;30.30;5.57;;;;;;;13.65;70.95;98107.31;5017221;28;20042;-75
2023/11/14 00:25:51;;;;;;;29.65;5.10;;;;;;;13.65;70.66;98110.78;5001468;28;20112;-76
2023/11/14 00:28:18;;;;;;;31.67;5.10;;;;;;;13.63;70.78;98096.88;4997208;28;20057;-74
2023/11/14 00:30:44;;;;;;;28.50;5.22;;;;;;;13.60;70.73;98086.59;5014474;28;20070;-78
2023/11/14 00:33:11;;;;;;;25.48;4.75;;;;;;;13.58;71.05;98100.94;5013681;28;20105;-75
2023/11/14 00:35:38;;;;;;;31.98;5.43;;;;;;;13.56;71.26;98082.59;5014503;28;20269;-75
2023/11/14 00:38:05;;;;;;;31.67;6.28;;;;;;;13.53;71.17;98098.78;5030527;28;20057;-75
2023/11/14 00:40:32;;;;;;;28.13;4.70;;;;;;;13.53;71.76;98091.66;5015766;28;20061;-77
2023/11/14 00:42:58;;;;;;;29.92;5.38;;;;;;;13.53;71.32;98101.41;5016138;28;20111;-76
2023/11/14 00:45:27;;;;;;;25.60;5.22;;;;;;;13.52;71.66;98105.84;5033963;28;20045;-75
2023/11/14 00:47:54;;;;;;;26.83;5.53;;;;;;;13.54;71.92;98105.72;5021033;28;20038;-80
2023/11/14 00:50:21;;;;;;;29.20;5.22;;;;;;;13.54;71.78;98098.59;4995962;28;20442;-74
2023/11/14 00:52:48;;;;;;;21.33;4.25;;;;;;;13.56;72.00;98103.75;5033360;28;20053;-78
2023/11/14 00:55:14;;;;;;;35.58;6.10;;;;;;;13.55;71.99;98115.31;5033682;28;20413;-75
2023/11/14 00:57:41;;;;;;;27.38;4.97;;;;;;;13.55;71.72;98118.78;5025625;28;20093;-74
2023/11/14 01:00:10;;;;;;;25.02;4.85;;;;;;;13.55;71.92;98123.22;5033490;28;20050;-77
2023/11/14 01:02:39;;;;;;;33.65;5.93;;;;;;;13.57;72.07;98120.44;5033279;28;20108;-76
2023/11/14 01:05:06;;;;;;;32.65;5.88;;;;;;;13.54;71.85;98142.72;5033471;28;20052;-75
2023/11/14 01:07:33;;;;;;;38.00;5.55;;;;;;;13.53;71.77;98112.00;5028843;28;20046;-79
2023/11/14 01:10:00;;;;;;;30.08;5.72;;;;;;;13.49;71.78;98115.91;5013829;28;20057;-75
2023/11/14 01:12:26;;;;;;;32.72;5.30;;;;;;;13.45;71.86;98103.94;5000483;28;20046;-75
2023/11/14 01:14:53;;;;;;;29.95;5.20;;;;;;;13.40;71.97;98099.06;5013351;28;20050;-78
2023/11/14 01:17:20;;;;;;;35.60;5.38;;;;;;;13.35;72.06;98098.69;5013806;28;20422;-75
2023/11/14 01:19:50;;;;;;;28.20;5.35;;;;;;;13.31;72.48;98111.38;4996516;28;20058;-75
2023/11/14 01:22:17;;;;;;;32.47;5.47;;;;;;;13.27;72.64;98105.53;5013917;28;20530;-75
2023/11/14 01:24:44;;;;;;;37.05;5.45;;;;;;;13.25;72.61;98096.09;5032337;28;20079;-78
2023/11/14 01:27:11;;;;;;;29.58;5.35;;;;;;;13.21;72.89;98094.72;5021535;28;20053;-74
2023/11/14 01:29:38;;;;;;;35.00;5.82;;;;;;;13.17;73.05;98086.25;4996006;28;20089;-74
2023/11/14 01:32:06;;;;;;;18.75;4.72;;;;;;;13.12;73.14;98099.88;5013129;28;20145;-78
2023/11/14 01:34:35;;;;;;;27.60;4.82;;;;;;;13.08;73.07;98092.41;5012191;28;20093;-76
2023/11/14 01:37:01;;;;;;;32.72;5.93;;;;;;;13.03;73.55;98098.13;5018686;28;20056;-75
2023/11/14 01:39:29;;;;;;;29.70;5.28;;;;;;;12.98;73.73;98109.09;5032906;28;20045;-74
2023/11/14 01:41:56;;;;;;;33.30;6.30;;;;;;;12.93;73.83;98113.97;5032438;28;20103;-75
2023/11/14 01:44:22;;;;;;;28.83;5.20;;;;;;;12.89;74.18;98102.03;5032942;28;20477;-74
2023/11/14 01:46:49;;;;;;;27.40;5.53;;;;;;;12.86;74.28;98102.34;5030512;28;20560;-85
2023/11/14 01:49:16;;;;;;;30.00;5.20;;;;;;;12.82;74.35;98101.78;5008613;28;20045;-77
2023/11/14 01:51:44;;;;;;;25.13;4.68;;;;;;;12.80;74.63;98116.94;5031585;28;20072;-74
2023/11/14 01:54:45;;;;;;;34.03;5.30;;;;;;;12.73;74.15;98119.31;4994809;28;20050;-75
2023/11/14 01:57:13;;;;;;;26.05;5.30;;;;;;;12.77;74.75;98136.56;5015221;28;20045;-75
2023/11/14 01:59:41;;;;;;;25.70;5.45;;;;;;;12.74;74.91;98123.63;5032450;28;20137;-74
2023/11/14 02:02:12;;;;;;;40.95;5.40;;;;;;;12.75;74.80;98148.22;5015385;28;20080;-77
2023/11/14 02:04:39;;;;;;;24.27;4.57;;;;;;;12.76;75.23;98144.59;5032703;28;20046;-75
2023/11/14 02:07:07;;;;;;;26.17;5.63;;;;;;;12.75;75.19;98137.66;5014674;28;20061;-76
2023/11/14 02:09:34;;;;;;;28.65;5.28;;;;;;;12.76;75.11;98118.22;5024222;28;20092;-74
2023/11/14 02:12:01;;;;;;;30.27;5.28;;;;;;;12.75;74.90;98124.47;5014356;28;20056;-75
2023/11/14 02:14:27;;;;;;;22.88;4.53;;;;;;;12.75;75.15;98132.38;5032309;28;20061;-76
2023/11/14 02:16:55;;;;;;;25.58;4.57;;;;;;;12.76;74.82;98134.06;5032140;28;20053;-75
2023/11/14 02:19:23;;;;;;;23.60;3.90;;;;;;;12.78;75.17;98134.72;5030974;28;20049;-76
2023/11/14 02:21:50;;;;;;;26.15;4.53;;;;;;;12.79;75.07;98128.50;5032124;28;20081;-75
2023/11/14 02:24:18;;;;;;;23.88;4.55;;;;;;;12.80;75.07;98122.22;5014363;28;20487;-74
2023/11/14 02:26:49;;;;;;;31.08;5.43;;;;;;;12.82;75.08;98128.19;5032178;28;20045;-75
2023/11/14 02:29:17;;;;;;;20.77;4.25;;;;;;;12.85;75.10;98129.72;5021739;28;20733;-77
2023/11/14 02:31:44;;;;;;;27.73;5.20;;;;;;;12.86;75.30;98115.56;5011746;28;20053;-76
2023/11/14 02:34:11;;;;;;;28.33;4.88;;;;;;;12.89;75.21;98128.44;4995174;28;20050;-74
2023/11/14 02:36:39;;;;;;;28.27;4.72;;;;;;;12.90;75.23;98133.59;5011958;28;20061;-75
2023/11/14 02:39:07;;;;;;;23.90;5.07;;;;;;;12.92;75.30;98130.81;5018548;28;20057;-74
2023/11/14 02:41:38;;;;;;;29.55;5.57;;;;;;;12.93;75.31;98144.84;5013595;28;20045;-75
2023/11/14 02:44:05;;;;;;;23.27;3.92;;;;;;;12.95;75.32;98145.53;4854357;22;20438;-76
2023/11/14 02:46:32;;;;;;;24.08;4.15;;;;;;;12.96;75.04;98147.19;5051076;28;20540;-75
2023/11/14 02:49:22;;;;;;;18.23;3.97;;;;;;;12.94;74.34;98149.16;5056146;28;20053;-77
2023/11/14 02:51:48;;;;;;;17.80;3.88;;;;;;;12.98;75.06;98146.06;5071411;28;20102;-74
2023/11/14 02:54:15;;;;;;;28.33;4.75;;;;;;;12.98;75.04;98143.44;5071001;28;20738;-73
2023/11/14 02:56:41;;;;;;;24.17;4.65;;;;;;;12.97;74.92;98140.97;5070573;28;20137;-74
2023/11/14 02:59:08;;;;;;;22.90;4.90;;;;;;;12.95;75.20;98142.91;5071087;28;20488;-75
2023/11/14 03:01:36;;;;;;;20.67;4.25;;;;;;;12.91;75.21;98126.50;5053208;28;20276;-77
2023/11/14 03:04:02;;;;;;;25.73;4.22;;;;;;;12.89;75.15;98115.25;5071496;28;20055;-75
2023/11/14 03:06:29;;;;;;;28.92;5.55;;;;;;;12.87;75.33;98122.50;5070961;28;20047;-75
2023/11/14 03:08:56;;;;;;;27.63;5.05;;;;;;;12.84;75.51;98157.94;5070856;28;20075;-73
2023/11/14 03:11:22;;;;;;;35.72;6.22;;;;;;;12.82;75.26;98140.56;5070492;28;20068;-73
2023/11/14 03:13:49;;;;;;;31.05;5.45;;;;;;;12.81;75.32;98158.22;5070596;28;20052;-73
2023/11/14 03:16:15;;;;;;;28.23;5.80;;;;;;;12.77;75.60;98162.94;5071015;28;20068;-74
2023/11/14 03:18:42;;;;;;;31.45;5.20;;;;;;;12.74;75.65;98165.03;5070370;28;20056;-72
2023/11/14 03:21:09;;;;;;;34.30;5.60;;;;;;;12.71;75.81;98183.81;5070411;28;20497;-77
2023/11/14 03:23:36;;;;;;;27.02;5.20;;;;;;;12.66;76.03;98170.16;5070814;28;20451;-75
2023/11/14 03:26:03;;;;;;;36.50;5.85;;;;;;;12.61;76.47;98168.81;5070789;28;20075;-74
2023/11/14 03:28:29;;;;;;;29.92;4.70;;;;;;;12.57;76.58;98159.50;5052820;28;20055;-74
2023/11/14 03:30:56;;;;;;;33.20;6.22;;;;;;;12.54;76.76;98143.94;5070700;28;20639;-74
2023/11/14 03:33:22;;;;;;;28.25;5.75;;;;;;;12.51;76.94;98128.38;5070505;28;20106;-75
2023/11/14 03:35:49;;;;;;;30.48;5.78;;;;;;;12.49;77.03;98139.06;5070614;28;20070;-77
2023/11/14 03:38:16;;;;;;;30.02;5.78;;;;;;;12.47;77.38;98135.75;5070170;28;20492;-79
2023/11/14 03:40:43;;;;;;;30.95;5.28;;;;;;;12.46;77.56;98157.84;5052420;28;20048;-76
2023/11/14 03:43:10;;;;;;;34.45;5.82;;;;;;;12.46;77.68;98162.28;5052684;28;20051;-74
2023/11/14 03:45:36;;;;;;;32.50;6.32;;;;;;;12.45;77.73;98171.19;5070708;28;20053;-76
2023/11/14 03:48:03;;;;;;;27.83;5.32;;;;;;;12.45;77.49;98185.19;5070421;28;20134;-74
2023/11/14 03:50:30;;;;;;;31.55;5.68;;;;;;;12.45;77.83;98190.47;5070102;28;20052;-74
2023/11/14 03:52:56;;;;;;;35.97;6.32;;;;;;;12.44;77.80;98209.91;5052175;28;20084;-72
2023/11/14 03:55:23;;;;;;;29.85;5.00;;;;;;;12.45;77.94;98189.66;5070433;28;20592;-73
2023/11/14 03:57:50;;;;;;;34.38;5.30;;;;;;;12.44;77.96;98180.03;5071846;28;20431;-75
2023/11/14 04:00:16;;;;;;;27.48;5.53;;;;;;;12.43;78.22;98168.66;5056934;28;20063;-73
2023/11/14 04:02:43;;;;;;;30.80;5.30;;;;;;;12.43;78.48;98157.28;5074098;28;20109;-74
2023/11/14 04:05:10;;;;;;;29.80;4.47;;;;;;;12.44;78.50;98157.13;5074566;28;20053;-73
2023/11/14 04:07:37;;;;;;;29.45;5.18;;;;;;;12.45;78.80;98202.84;5073817;28;20056;-75
2023/11/14 04:10:07;;;;;;;24.40;4.18;;;;;;;12.45;78.54;98173.81;5074449;28;20417;-75
2023/11/14 04:12:33;;;;;;;19.55;3.30;;;;;;;12.45;78.38;98192.28;5074391;28;20063;-75
2023/11/14 04:15:00;;;;;;;12.45;2.78;;;;;;;12.42;78.11;98180.19;5074496;28;20101;-75
2023/11/14 04:17:27;;;;;;;11.88;2.53;;;;;;;12.41;77.84;98162.69;5073794;28;20041;-74
2023/11/14 04:19:53;;;;;;;12.50;2.75;;;;;;;12.38;78.07;98215.75;5073643;28;20044;-75
2023/11/14 04:22:20;;;;;;;10.10;2.25;;;;;;;12.35;77.69;98189.63;5073883;28;20142;-72
2023/11/14 04:24:47;;;;;;;21.25;3.55;;;;;;;12.30;77.93;98216.41;5074238;28;20048;-74
2023/11/14 04:27:13;;;;;;;24.52;4.50;;;;;;;12.28;78.30;98210.47;5073809;28;20106;-74
2023/11/14 04:29:40;;;;;;;23.95;4.47;;;;;;;12.27;78.75;98202.69;5056180;28;20083;-77
2023/11/14 04:32:06;;;;;;;21.17;4.60;;;;;;;12.23;79.29;98195.03;5073558;28;20102;-74
2023/11/14 04:34:34;;;;;;;31.73;5.10;;;;;;;12.24;79.48;98206.44;5073962;28;20048;-73
2023/11/14 04:37:01;;;;;;;39.97;6.00;;;;;;;12.24;79.67;98230.16;5073575;28;20055;-72
2023/11/14 04:39:27;;;;;;;32.95;6.00;;;;;;;12.24;79.87;98193.22;5073316;28;20090;-73
2023/11/14 04:41:54;;;;;;;35.92;6.15;;;;;;;12.28;79.90;98189.34;5073672;28;20044;-73
2023/11/14 04:44:20;;;;;;;37.70;7.38;;;;;;;12.29;80.23;98191.00;5055782;28;20080;-75
2023/11/14 04:46:47;;;;;;;34.13;6.35;;;;;;;12.30;80.03;98197.94;5073873;28;20101;-73
2023/11/14 04:49:14;;;;;;;41.67;6.03;;;;;;;12.34;80.06;98224.91;5073206;28;20074;-73
2023/11/14 04:51:40;;;;;;;32.65;5.88;;;;;;;12.36;80.25;98210.59;5073644;28;20091;-74
2023/11/14 04:54:07;;;;;;;39.13;7.43;;;;;;;12.38;80.06;98213.94;5073790;28;20097;-75
2023/11/14 04:56:34;;;;;;;32.42;6.25;;;;;;;12.40;80.33;98194.50;5073690;28;20106;-73
2023/11/14 04:59:01;;;;;;;33.60;6.10;;;;;;;12.46;80.01;98201.88;5073279;28;20125;-78
2023/11/14 05:01:28;;;;;;;32.83;6.38;;;;;;;12.48;79.82;98203.38;5072980;28;20094;-73
2023/11/14 05:03:55;;;;;;;36.78;6.40;;;;;;;12.50;79.81;98188.25;5072992;28;20048;-73
2023/11/14 05:06:22;;;;;;;28.90;5.10;;;;;;;12.52;79.92;98209.22;5073643;28;20045;-74
2023/11/14 05:08:48;;;;;;;36.25;5.57;;;;;;;12.52;79.40;98185.47;5073199;28;20126;-72
2023/11/14 05:11:15;;;;;;;27.20;5.10;;;;;;;12.54;79.55;98195.88;5073236;28;20475;-73
2023/11/14 05:13:41;;;;;;;26.88;5.25;;;;;;;12.54;79.41;98207.28;5073184;28;20059;-73
2023/11/14 05:16:10;;;;;;;33.20;4.97;;;;;;;12.56;79.33;98209.78;5072973;28;20076;-76
2023/11/14 05:18:49;;;;;;;29.58;4.45;;;;;;;12.56;79.39;98194.78;5073129;28;20131;-73
2023/11/14 05:21:15;;;;;;;25.13;5.13;;;;;;;12.56;79.42;98202.69;5073095;28;20067;-75
2023/11/14 05:23:42;;;;;;;24.00;5.03;;;;;;;12.56;79.41;98205.31;5073089;28;20048;-75
2023/11/14 05:26:09;;;;;;;27.75;5.38;;;;;;;12.57;79.38;98212.28;5072841;28;20052;-75
2023/11/14 05:28:38;;;;;;;31.58;5.65;;;;;;;12.57;79.31;98207.03;5073037;28;20087;-73
2023/11/14 05:31:05;;;;;;;35.40;5.45;;;;;;;12.59;79.43;98220.91;5072367;28;20055;-72
2023/11/14 05:33:31;;;;;;;20.25;4.70;;;;;;;12.60;79.39;98201.44;5073099;28;20136;-73
2023/11/14 05:35:58;;;;;;;35.05;6.05;;;;;;;12.61;79.41;98203.13;5072282;28;20044;-74
2023/11/14 05:38:24;;;;;;;25.83;4.65;;;;;;;12.64;79.17;98212.56;5073017;28;20044;-75
2023/11/14 05:40:51;;;;;;;24.42;4.43;;;;;;;12.66;79.27;98215.03;5072958;28;20044;-74
2023/11/14 05:43:19;;;;;;;27.08;5.05;;;;;;;12.64;79.28;98226.59;5072603;28;20492;-75
2023/11/14 05:45:46;;;;;;;21.35;4.38;;;;;;;12.66;79.38;98209.78;5072469;28;20048;-74
2023/11/14 05:48:14;;;;;;;26.13;5.13;;;;;;;12.66;79.13;98222.97;5055005;28;20475;-74
2023/11/14 05:50:42;;;;;;;23.13;5.22;;;;;;;12.67;79.07;98229.94;5072874;28;20048;-74
2023/11/14 05:53:09;;;;;;;23.50;4.20;;;;;;;12.66;79.00;98233.53;5071996;28;20048;-75
2023/11/14 05:55:36;;;;;;;25.80;5.15;;;;;;;12.67;78.98;98236.03;5072710;28;20048;-74
2023/11/14 05:58:03;;;;;;;25.58;5.50;;;;;;;12.68;79.03;98242.16;5072300;28;20048;-74
2023/11/14 06:00:29;;;;;;;29.90;5.05;;;;;;;12.66;79.18;98234.38;5055063;28;20052;-74
2023/11/14 06:02:56;;;;;;;27.75;4.90;;;;;;;12.67;79.13;98251.06;5072250;28;20578;-72
2023/11/14 06:05:23;;;;;;;30.08;5.40;;;;;;;12.66;79.33;98247.56;5072331;28;20147;-73
2023/11/14 06:07:49;;;;;;;23.20;5.82;;;;;;;12.67;79.40;98249.22;5072150;28;20063;-75
2023/11/14 06:10:16;;;;;;;23.35;5.00;;;;;;;12.70;79.50;98253.41;5071959;28;20517;-73
2023/11/14 06:12:43;;;;;;;35.10;6.22;;;;;;;12.71;79.52;98237.41;5053892;28;20420;-71
2023/11/14 06:15:10;;;;;;;29.52;5.05;;;;;;;12.73;79.24;98235.50;5072555;28;20564;-75
2023/11/14 06:17:37;;;;;;;32.22;5.53;;;;;;;12.76;79.10;98243.13;5072006;28;20412;-72
2023/11/14 06:20:08;;;;;;;30.40;4.72;;;;;;;12.79;79.26;98241.19;5071547;28;20048;-72
2023/11/14 06:22:35;;;;;;;26.98;5.15;;;;;;;12.81;79.14;98253.28;5071718;28;20501;-74
2023/11/14 06:25:03;;;;;;;34.63;6.20;;;;;;;12.81;79.07;98248.00;5071962;28;20052;-73
2023/11/14 06:27:30;;;;;;;32.33;5.45;;;;;;;12.83;79.20;98259.25;5072067;28;20685;-73
2023/11/14 06:29:56;;;;;;;32.80;5.47;;;;;;;12.84;79.15;98255.66;5072115;28;20056;-75
2023/11/14 06:32:24;;;;;;;32.28;5.30;;;;;;;12.85;79.23;98259.94;5071578;28;20052;-73
2023/11/14 06:34:52;;;;;;;37.28;7.55;;;;;;;12.87;79.00;98251.88;5071896;28;20055;-74
2023/11/14 06:37:19;;;;;;;29.98;5.13;;;;;;;12.89;78.96;98249.91;5070356;28;20051;-72
2023/11/14 06:39:47;;;;;;;32.70;6.65;;;;;;;12.89;78.78;98265.78;5053950;28;20044;-74
2023/11/14 06:42:14;;;;;;;41.55;7.88;;;;;;;12.89;78.80;98279.81;5071210;28;20110;-72
2023/11/14 06:44:44;;;;;;;35.67;6.47;;;;;;;12.90;78.29;98285.94;5071524;28;20048;-72
2023/11/14 06:47:12;;;;;;;37.15;6.03;;;;;;;12.92;77.53;98264.66;5053591;28;20052;-73
2023/11/14 06:49:38;;;;;;;35.05;5.45;;;;;;;12.96;78.70;98273.97;5071560;28;20131;-73
2023/11/14 06:52:05;;;;;;;34.35;5.72;;;;;;;12.97;78.48;98279.13;5070839;28;20044;-75
2023/11/14 06:54:32;;;;;;;38.40;5.97;;;;;;;12.97;78.32;98275.66;5071415;28;20075;-77
2023/11/14 06:56:59;;;;;;;31.23;6.45;;;;;;;13.00;78.83;98281.47;5071051;28;20489;-75
2023/11/14 06:59:25;;;;;;;33.15;6.18;;;;;;;13.01;78.45;98284.97;5071554;28;20048;-74
2023/11/14 07:01:52;;;;;;;36.45;5.43;;;;;;;13.02;78.39;98276.06;5070761;28;20075;-77
2023/11/14 07:04:22;;;;;;;28.50;5.15;;;;;;;13.02;77.91;98290.09;5071118;28;20083;-74
2023/11/14 07:06:48;;;;;;;37.97;6.22;;;;;;;13.06;78.02;98292.47;5070805;28;20052;-74
2023/11/14 07:09:21;;;;;;;27.92;6.15;;;;;;;13.06;78.09;98303.88;5070830;28;20161;-76
2023/11/14 07:11:49;;;;;;;27.58;5.82;;;;;;;13.08;77.94;98293.97;5070886;28;20052;-76
2023/11/14 07:14:21;;;;;;;37.10;6.03;;;;;;;13.09;78.07;98300.94;5070741;28;20098;-73
2023/11/14 07:16:49;;;;;;;34.28;6.13;;;;;;;13.12;78.15;98313.88;5070809;28;20102;-77
2023/11/14 07:19:17;;;;;;;30.63;5.10;;;;;;;13.14;78.09;98309.28;5071093;28;20048;-74
2023/11/14 07:21:46;;;;;;;31.95;5.15;;;;;;;13.15;77.87;98318.03;5071029;28;20106;-76
2023/11/14 07:24:13;;;;;;;33.55;6.07;;;;;;;13.16;77.79;98330.28;5070941;28;20040;-75
2023/11/14 07:26:41;;;;;;;36.28;5.85;;;;;;;13.15;77.67;98303.03;5070816;28;20121;-75
2023/11/14 07:29:07;;;;;;;41.83;7.03;;;;;;;13.13;77.52;98310.25;5053155;28;20095;-75
2023/11/14 07:31:34;;;;;;;36.80;4.95;;;;;;;13.12;77.71;98316.50;5069662;28;20508;-76
2023/11/14 07:34:01;;;;;;;30.55;6.32;;;;;;;13.11;77.65;98317.50;5052933;28;20052;-75
2023/11/14 07:36:27;;;;;;;34.92;5.63;;;;;;;13.11;77.71;98327.22;5070806;28;20056;-74
2023/11/14 07:38:54;;;;;;;32.10;6.05;;;;;;;13.05;77.76;98320.69;5070663;28;20076;-73
2023/11/14 07:41:21;;;;;;;31.42;5.07;;;;;;;13.05;77.71;98314.56;5052889;28;20213;-78
2023/11/14 07:43:48;;;;;;;27.15;5.97;;;;;;;13.02;77.88;98299.84;5050964;28;20053;-74
2023/11/14 07:46:15;;;;;;;25.17;5.13;;;;;;;13.00;77.95;98317.63;5050682;28;20057;-76
2023/11/14 07:48:42;;;;;;;29.45;5.45;;;;;;;12.98;78.19;98317.75;5068475;28;20048;-73
2023/11/14 07:51:09;;;;;;;23.08;5.28;;;;;;;12.97;78.29;98349.63;5070445;28;20528;-75
2023/11/14 07:53:35;;;;;;;36.20;6.25;;;;;;;12.97;78.51;98344.31;5053072;28;20143;-75
2023/11/14 07:56:02;;;;;;;35.30;6.35;;;;;;;12.97;78.57;98352.25;5070672;28;20075;-72
2023/11/14 07:58:29;;;;;;;34.10;5.68;;;;;;;12.97;78.49;98361.00;5052140;28;20048;-74
2023/11/14 08:00:58;;;;;;;32.10;5.05;;;;;;;12.98;78.68;98354.72;5070904;28;20053;-75
2023/11/14 08:03:25;;;;;;;29.65;5.22;;;;;;;12.98;78.66;98357.38;5050751;28;20147;-74
2023/11/14 08:05:51;;;;;;;28.20;5.70;;;;;;;12.99;78.30;98342.38;5059583;28;20044;-74
2023/11/14 08:08:18;;;;;;;24.45;4.85;;;;;;;13.00;78.59;98346.66;5052804;28;20121;-73
2023/11/14 08:10:45;;;;;;;29.52;5.78;;;;;;;13.00;78.65;98347.53;5052377;28;20144;-75
2023/11/14 08:13:12;;;;;;;25.55;4.90;;;;;;;13.00;78.98;98344.88;5070364;28;20056;-74
2023/11/14 08:15:38;;;;;;;27.33;4.88;;;;;;;13.03;78.66;98347.25;5070401;28;20135;-73
2023/11/14 08:18:05;;;;;;;28.35;4.95;;;;;;;13.05;79.04;98341.84;5070358;28;20052;-74
2023/11/14 08:20:32;;;;;;;26.55;5.25;;;;;;;13.06;79.05;98340.84;5070180;28;20451;-75
2023/11/14 08:22:59;;;;;;;30.13;5.50;;;;;;;13.07;78.50;98352.22;5070215;28;20103;-76
2023/11/14 08:25:25;;;;;;;30.73;5.75;;;;;;;13.09;78.83;98355.59;5069113;28;20049;-73
2023/11/14 08:27:52;;;;;;;24.98;5.30;;;;;;;13.11;78.79;98346.53;5069483;28;20049;-75
2023/11/14 08:30:19;;;;;;;25.33;5.60;;;;;;;13.12;78.58;98334.19;5069586;28;20052;-73
2023/11/14 08:32:47;;;;;;;29.83;4.97;;;;;;;13.14;78.63;98343.63;5051743;28;20457;-74
2023/11/14 08:35:13;;;;;;;25.10;5.18;;;;;;;13.15;78.59;98333.88;5069784;28;20063;-74
2023/11/14 08:37:40;;;;;;;30.05;5.70;;;;;;;13.16;78.42;98354.88;5052051;28;20088;-74
2023/11/14 08:40:09;;;;;;;35.20;6.57;;;;;;;13.17;78.34;98353.09;5070141;28;20049;-75
2023/11/14 08:45:13;;;;;;;29.85;5.45;;;;;;;13.16;78.30;98362.81;5038690;28;20053;-81
2023/11/14 08:47:39;;;;;;;32.08;6.22;;;;;;;13.18;78.59;98364.47;5054338;28;20118;-80
2023/11/14 08:50:06;;;;;;;34.58;7.22;;;;;;;13.16;78.42;98349.59;5054115;28;20056;-81
2023/11/14 08:52:34;;;;;;;35.03;6.93;;;;;;;13.16;78.36;98359.34;5053608;28;20550;-81
2023/11/14 08:55:01;;;;;;;35.22;6.03;;;;;;;13.15;78.66;98363.78;5053589;28;20049;-81
2023/11/14 08:57:28;;;;;;;31.20;5.97;;;;;;;13.16;78.63;98367.28;5053714;28;20056;-81
2023/11/14 08:59:58;;;;;;;35.55;6.32;;;;;;;13.17;78.55;98379.50;5053590;28;20669;-81
2023/11/14 09:02:24;;;;;;;31.42;5.63;;;;;;;13.20;78.45;98373.13;5053514;28;20049;-81
2023/11/14 09:04:51;;;;;;;32.22;6.63;;;;;;;13.19;78.84;98368.81;5053695;28;20056;-81
2023/11/14 09:07:18;;;;;;;28.70;5.63;;;;;;;13.20;78.61;98367.81;5035227;28;20049;-80
2023/11/14 09:09:46;;;;;;;27.55;5.38;;;;;;;13.20;78.67;98388.97;5053502;28;20057;-81
2023/11/14 09:12:14;;;;;;;35.42;6.75;;;;;;;13.20;78.88;98360.72;5035515;28;20512;-81
2023/11/14 09:14:40;;;;;;;30.13;6.28;;;;;;;13.21;78.96;98375.63;5053564;28;20118;-80
2023/11/14 09:17:08;;;;;;;24.60;5.00;;;;;;;13.21;78.76;98375.63;5052712;28;20107;-81
2023/11/14 09:19:35;;;;;;;30.88;5.88;;;;;;;13.22;79.23;98374.63;5053139;28;20045;-80
2023/11/14 09:22:02;;;;;;;43.40;7.40;;;;;;;13.23;79.37;98367.56;5052689;28;20103;-81
2023/11/14 09:24:28;;;;;;;29.83;5.15;;;;;;;13.27;79.70;98363.66;5052684;28;20580;-80
2023/11/14 09:26:55;;;;;;;35.75;7.00;;;;;;;13.32;79.56;98364.06;5035385;28;20114;-81
2023/11/14 09:29:21;;;;;;;32.72;6.53;;;;;;;13.37;79.25;98366.28;5052522;28;20076;-81
2023/11/14 09:31:49;;;;;;;32.65;6.00;;;;;;;13.41;79.42;98373.81;5034257;28;20501;-81
2023/11/14 09:34:16;;;;;;;28.58;5.03;;;;;;;13.46;79.14;98367.25;5051615;28;20132;-77
2023/11/14 09:36:43;;;;;;;29.83;5.85;;;;;;;13.51;78.64;98397.63;5051975;28;20469;-78
2023/11/14 09:39:12;;;;;;;29.33;5.72;;;;;;;13.53;78.36;98363.94;5014459;28;20128;-79
2023/11/14 09:41:53;;;;;;;24.95;5.40;;;;;;;13.57;78.33;98376.88;5016248;28;20046;-78
2023/11/14 09:44:19;;;;;;;34.17;6.18;;;;;;;13.60;78.49;98376.59;5044949;28;20041;-78
2023/11/14 09:46:50;;;;;;;27.58;5.40;;;;;;;13.61;77.61;98389.66;5052987;28;20076;-78
2023/11/14 09:49:17;;;;;;;28.38;5.20;;;;;;;13.64;77.98;98378.81;5052907;28;20099;-78
2023/11/14 09:51:48;;;;;;;30.70;5.40;;;;;;;13.64;77.05;98404.44;5034813;28;20449;-79
2023/11/14 09:54:16;;;;;;;27.33;4.97;;;;;;;13.67;77.51;98385.63;5051749;28;20048;-78
2023/11/14 09:56:47;;;;;;;35.42;6.00;;;;;;;13.68;77.52;98387.28;5052312;28;20056;-78
2023/11/14 09:59:14;;;;;;;26.15;5.60;;;;;;;13.70;77.65;98389.78;5052726;28;20064;-79
2023/11/14 10:01:42;;;;;;;28.30;5.55;;;;;;;13.71;77.67;98391.47;5052182;28;20057;-78
2023/11/14 10:04:10;;;;;;;31.17;5.93;;;;;;;13.71;77.60;98396.78;5052616;28;20141;-78
2023/11/14 10:06:41;;;;;;;33.78;6.22;;;;;;;13.71;76.79;98386.19;5052390;28;20067;-78
2023/11/14 10:09:11;;;;;;;32.30;6.47;;;;;;;13.73;77.83;98393.00;5045403;28;20056;-79
2023/11/14 10:11:41;;;;;;;27.40;5.38;;;;;;;13.72;76.56;98401.91;5052288;28;20501;-78
2023/11/14 10:14:43;;;;;;;23.67;4.78;;;;;;;13.72;75.17;98398.44;5052498;28;20040;-78
2023/11/14 10:17:12;;;;;;;36.70;6.30;;;;;;;13.78;77.13;98390.75;5034550;28;20110;-78
2023/11/14 10:20:08;;;;;;;24.05;5.70;;;;;;;13.74;75.37;98397.31;5034357;28;20067;-78
2023/11/14 10:22:46;;;;;;;23.77;4.45;;;;;;;13.77;75.94;98407.63;5051794;28;20045;-79
2023/11/14 10:25:29;;;;;;;31.20;5.28;;;;;;;13.77;75.15;98402.31;5052448;28;20088;-78
2023/11/14 10:28:06;;;;;;;28.35;5.57;;;;;;;13.78;74.73;98401.34;5051301;28;20448;-78
2023/11/14 10:30:42;;;;;;;22.65;4.55;;;;;;;13.78;75.79;98393.41;5051930;28;20123;-77
2023/11/14 10:33:09;;;;;;;30.25;5.35;;;;;;;13.81;76.58;98402.88;5051498;28;20044;-77
2023/11/14 10:35:36;;;;;;;25.63;5.28;;;;;;;13.82;77.25;98399.25;5052146;28;20049;-77
2023/11/14 10:38:16;;;;;;;27.48;5.65;;;;;;;13.79;75.55;98404.81;5051899;28;20478;-78
2023/11/14 10:40:52;;;;;;;21.63;4.60;;;;;;;13.84;76.44;98402.59;5051916;28;20128;-78
2023/11/14 10:43:31;;;;;;;24.00;5.28;;;;;;;13.83;75.09;98398.25;5033106;28;20151;-78
2023/11/14 10:46:08;;;;;;;24.30;5.18;;;;;;;13.86;75.88;98400.63;5051718;28;20056;-78
2023/11/14 10:48:35;;;;;;;29.00;5.70;;;;;;;13.90;77.09;98396.72;5051879;28;20087;-78
2023/11/14 10:51:03;;;;;;;24.10;5.50;;;;;;;13.92;76.95;98404.53;5051521;28;20127;-78
2023/11/14 10:53:30;;;;;;;27.38;5.07;;;;;;;13.93;77.13;98408.81;5051200;28;20137;-78
2023/11/14 10:55:57;;;;;;;28.98;5.90;;;;;;;13.93;77.37;98392.94;5051486;28;20122;-78
2023/11/14 10:58:24;;;;;;;32.72;5.60;;;;;;;13.92;77.18;98384.19;5051430;28;20052;-78
2023/11/14 11:00:51;;;;;;;25.38;4.47;;;;;;;13.95;76.80;98398.94;5051613;28;20053;-79
2023/11/14 11:03:18;;;;;;;27.80;4.65;;;;;;;13.97;76.87;98393.53;5050983;28;20053;-79
2023/11/14 11:05:47;;;;;;;20.58;4.60;;;;;;;13.97;76.75;98393.53;5051138;28;20094;-79
2023/11/14 11:08:13;;;;;;;21.63;4.63;;;;;;;13.98;77.17;98400.47;5051201;28;20494;-79
2023/11/14 11:10:45;;;;;;;20.08;4.50;;;;;;;14.01;77.62;98408.94;5051205;28;20065;-78
2023/11/14 11:13:22;;;;;;;23.85;4.50;;;;;;;14.02;76.15;98404.50;5050594;28;21140;-78
2023/11/14 11:15:51;;;;;;;19.35;4.47;;;;;;;14.08;77.41;98401.28;5033526;28;20060;-78
2023/11/14 11:18:32;;;;;;;28.60;4.93;;;;;;;14.11;76.10;98408.94;5051083;28;20061;-79
2023/11/14 11:21:12;;;;;;;22.55;4.40;;;;;;;14.15;76.33;98415.59;5051133;28;20131;-81
2023/11/14 11:24:09;;;;;;;34.33;5.72;;;;;;;14.20;76.22;98397.47;5050903;28;20052;-79
2023/11/14 11:27:10;;;;;;;30.88;5.18;;;;;;;14.29;77.05;98397.59;5050817;28;20045;-77
2023/11/14 11:29:52;;;;;;;23.90;5.22;;;;;;;14.41;77.18;98391.13;5050992;28;20496;-79
2023/11/14 11:32:26;;;;;;;54.28;7.28;;;;;;;14.56;77.98;98391.47;5050992;28;20057;-79